Time;durP1;ratioP1;P1;durP2;ratioP2;P2;SDS_P1;SDS_P2;PMS_P1;PMS_P2;Temp;Humidity;BMP_temperature;BMP_pressure;BME280_temperature;BME280_humidity;BME280_pressure;Samples;Min_cycle;Max_cycle;Signal;HPM_P1;HPM_P2
2022/12/09 00:00:34;;;;;;;24.03;7.30;;;-0.70;99.90;;;;;;5033184;28;20214;-82
2022/12/09 00:03:00;;;;;;;31.30;8.40;;;-0.80;99.90;;;;;;5033142;28;20170;-84
2022/12/09 00:05:25;;;;;;;20.60;5.93;;;-0.90;99.90;;;;;;5033185;28;20162;-84
2022/12/09 00:07:51;;;;;;;32.67;6.23;;;-0.80;99.90;;;;;;5033136;28;20191;-83
2022/12/09 00:10:16;;;;;;;29.23;8.87;;;-0.80;99.90;;;;;;5033370;28;20167;-82
2022/12/09 00:12:42;;;;;;;26.33;6.60;;;-0.80;99.90;;;;;;5033205;28;20205;-83
2022/12/09 00:15:08;;;;;;;37.57;6.63;;;-0.80;99.90;;;;;;5033184;28;20229;-84
2022/12/09 00:17:34;;;;;;;14.30;5.80;;;-0.90;99.90;;;;;;5033087;28;20224;-83
2022/12/09 00:19:59;;;;;;;22.47;6.40;;;-0.90;99.90;;;;;;5033199;28;20630;-82
2022/12/09 00:22:26;;;;;;;20.80;7.90;;;-0.90;99.90;;;;;;5033077;28;20444;-82
2022/12/09 00:24:52;;;;;;;27.37;8.20;;;-0.80;99.90;;;;;;5032916;28;20174;-81
2022/12/09 00:27:17;;;;;;;11.10;4.90;;;-0.70;99.90;;;;;;5032781;28;20479;-82
2022/12/09 00:29:43;;;;;;;13.83;8.50;;;-0.70;99.90;;;;;;5032847;28;20268;-81
2022/12/09 00:32:08;;;;;;;11.67;5.83;;;-0.70;99.90;;;;;;5032887;28;20634;-82
2022/12/09 00:34:34;;;;;;;20.33;7.50;;;-0.60;99.90;;;;;;5032253;28;20716;-81
2022/12/09 00:36:59;;;;;;;15.20;7.47;;;-0.70;99.90;;;;;;5032665;28;20650;-81
2022/12/09 00:39:25;;;;;;;15.40;7.00;;;-0.50;99.90;;;;;;5032593;28;20296;-81
2022/12/09 00:41:50;;;;;;;16.60;6.67;;;-0.50;99.90;;;;;;5032486;28;20181;-81
2022/12/09 00:44:16;;;;;;;33.63;6.97;;;-0.60;99.90;;;;;;5032587;28;20177;-82
2022/12/09 00:46:42;;;;;;;26.80;9.10;;;-0.60;99.90;;;;;;5014661;28;20170;-83
2022/12/09 00:49:08;;;;;;;18.33;6.80;;;-0.60;99.90;;;;;;5031955;28;20651;-83
2022/12/09 00:51:34;;;;;;;11.90;6.47;;;-0.60;99.90;;;;;;5032426;28;20514;-82
2022/12/09 00:54:00;;;;;;;31.00;7.63;;;-0.50;99.90;;;;;;5032154;28;20555;-83
2022/12/09 00:56:27;;;;;;;28.27;10.40;;;-0.50;99.90;;;;;;5032314;28;20183;-83
2022/12/09 00:58:53;;;;;;;13.17;6.87;;;-0.40;99.90;;;;;;5032061;28;20222;-83
2022/12/09 01:01:18;;;;;;;14.37;7.53;;;-0.30;99.90;;;;;;5032194;28;20426;-83
2022/12/09 01:03:44;;;;;;;16.13;7.80;;;-0.30;99.90;;;;;;5014401;28;20450;-82
2022/12/09 01:06:13;;;;;;;20.03;8.97;;;-0.30;99.90;;;;;;5032001;28;20622;-83
2022/12/09 01:08:39;;;;;;;17.93;9.07;;;-0.20;99.90;;;;;;5032004;28;20539;-82
2022/12/09 01:11:18;;;;;;;18.77;9.30;;;-0.20;99.90;;;;;;5014403;28;20493;-82
2022/12/09 01:13:44;;;;;;;18.73;8.90;;;-0.20;99.90;;;;;;5033829;28;20867;-82
2022/12/09 01:16:36;;;;;;;21.87;9.43;;;-0.10;99.90;;;;;;5018459;28;20417;-82
2022/12/09 01:19:06;;;;;;;13.57;9.23;;;-0.10;99.90;;;;;;5032559;28;20186;-83
2022/12/09 01:21:31;;;;;;;11.70;7.43;;;-0.10;99.90;;;;;;5035881;28;20508;-82
2022/12/09 01:23:57;;;;;;;27.03;9.53;;;-0.10;99.90;;;;;;5036014;28;20457;-83
2022/12/09 01:26:23;;;;;;;29.43;11.60;;;-0.10;99.90;;;;;;5036017;28;20634;-82
2022/12/09 01:28:51;;;;;;;23.20;10.53;;;0.00;99.90;;;;;;5036067;28;20234;-83
2022/12/09 01:31:20;;;;;;;36.03;9.27;;;0.00;99.90;;;;;;5035945;28;20167;-83
2022/12/09 01:33:46;;;;;;;16.67;9.80;;;0.00;99.90;;;;;;5035755;28;20589;-83
2022/12/09 01:36:18;;;;;;;15.20;7.60;;;-0.10;99.90;;;;;;5036134;28;20528;-83
2022/12/09 01:38:45;;;;;;;18.17;9.20;;;0.00;99.90;;;;;;5036013;28;20421;-84
2022/12/09 01:41:10;;;;;;;20.73;9.67;;;0.00;99.90;;;;;;5035868;28;20771;-83
2022/12/09 01:43:38;;;;;;;17.93;9.60;;;0.00;99.90;;;;;;5035919;28;20455;-82
2022/12/09 01:46:03;;;;;;;16.70;9.27;;;-0.10;99.90;;;;;;5034229;28;20306;-83
2022/12/09 01:48:36;;;;;;;12.73;7.40;;;-0.10;99.90;;;;;;5035168;28;20475;-83
2022/12/09 01:51:08;;;;;;;18.43;9.13;;;-0.10;99.90;;;;;;5035625;28;20171;-83
2022/12/09 01:53:36;;;;;;;17.67;10.20;;;-0.10;99.90;;;;;;5034655;28;20628;-83
2022/12/09 01:56:07;;;;;;;17.40;8.03;;;0.00;99.90;;;;;;5035743;28;20514;-83
2022/12/09 01:58:33;;;;;;;17.83;7.83;;;0.00;99.90;;;;;;5035353;28;20499;-82
2022/12/09 02:00:58;;;;;;;20.23;10.87;;;0.00;99.90;;;;;;5032651;28;20413;-83
2022/12/09 02:03:24;;;;;;;17.63;10.80;;;0.10;99.90;;;;;;5027863;28;20186;-83
2022/12/09 02:05:50;;;;;;;22.23;9.57;;;0.10;99.90;;;;;;5035401;28;20181;-83
2022/12/09 02:08:17;;;;;;;18.50;9.67;;;0.00;99.90;;;;;;5035685;28;20309;-83
2022/12/09 02:11:16;;;;;;;16.57;9.60;;;0.10;99.90;;;;;;5035749;28;20445;-82
2022/12/09 02:14:01;;;;;;;20.50;10.63;;;0.20;99.90;;;;;;5035453;28;20875;-83
2022/12/09 02:16:34;;;;;;;23.80;10.30;;;0.20;99.90;;;;;;5035558;28;20564;-83
2022/12/09 02:19:15;;;;;;;18.10;9.80;;;0.20;99.90;;;;;;5035202;28;20417;-83
2022/12/09 02:21:52;;;;;;;21.17;8.90;;;0.30;99.90;;;;;;5029850;28;20921;-83
2022/12/09 02:24:40;;;;;;;16.57;9.30;;;0.30;99.90;;;;;;5034827;28;20455;-83
2022/12/09 02:27:19;;;;;;;20.10;9.43;;;0.30;99.90;;;;;;5035209;28;20417;-83
2022/12/09 02:30:08;;;;;;;25.03;10.10;;;0.40;99.90;;;;;;5030290;28;20833;-82
2022/12/09 02:32:59;;;;;;;21.33;9.90;;;0.40;99.90;;;;;;5035141;28;20419;-83
2022/12/09 02:35:52;;;;;;;18.20;8.97;;;0.40;99.90;;;;;;5034815;28;20426;-83
2022/12/09 02:38:31;;;;;;;18.90;9.73;;;0.40;99.90;;;;;;5035282;28;20420;-82
2022/12/09 02:41:22;;;;;;;22.57;9.37;;;0.40;99.90;;;;;;5034889;28;20423;-83
2022/12/09 02:43:53;;;;;;;22.67;10.40;;;0.50;99.90;;;;;;5034413;28;20433;-83
2022/12/09 02:46:20;;;;;;;22.40;9.93;;;0.50;99.90;;;;;;5035076;28;20415;-83
2022/12/09 02:48:55;;;;;;;22.53;9.27;;;0.40;99.90;;;;;;5034592;28;20534;-81
2022/12/09 02:51:22;;;;;;;26.07;10.27;;;0.50;99.90;;;;;;5034945;28;20412;-82
2022/12/09 02:53:52;;;;;;;22.47;11.20;;;0.50;99.90;;;;;;5034759;28;20566;-83
2022/12/09 02:56:19;;;;;;;20.40;11.60;;;0.50;99.90;;;;;;5034816;28;20402;-83
2022/12/09 02:58:44;;;;;;;26.57;11.83;;;0.70;99.90;;;;;;5034587;28;20618;-83
2022/12/09 03:01:42;;;;;;;22.47;9.87;;;0.60;99.90;;;;;;5034641;28;20492;-83
2022/12/09 03:04:12;;;;;;;26.33;11.87;;;0.60;99.90;;;;;;5034317;28;20210;-82
2022/12/09 03:06:46;;;;;;;21.17;10.00;;;0.60;99.90;;;;;;5034672;28;20400;-83
2022/12/09 03:09:27;;;;;;;20.80;10.03;;;0.60;99.90;;;;;;5034536;28;20414;-82
2022/12/09 03:11:54;;;;;;;14.70;9.53;;;0.60;99.90;;;;;;5034221;28;20748;-83
2022/12/09 03:14:44;;;;;;;18.97;9.27;;;0.60;99.90;;;;;;5034354;28;20502;-83
2022/12/09 03:17:25;;;;;;;22.50;11.90;;;0.60;99.90;;;;;;5034455;28;20409;-82
2022/12/09 03:19:58;;;;;;;20.60;11.97;;;0.80;99.90;;;;;;5029847;28;20445;-83
2022/12/09 03:22:27;;;;;;;19.37;9.53;;;0.70;99.90;;;;;;5034262;28;20414;-83
2022/12/09 03:24:59;;;;;;;21.20;10.20;;;0.80;99.90;;;;;;5034301;28;20495;-83
2022/12/09 03:27:31;;;;;;;19.67;9.47;;;0.70;99.90;;;;;;5034260;28;20480;-84
2022/12/09 03:29:59;;;;;;;17.90;9.70;;;0.70;99.90;;;;;;5030883;28;20483;-83
2022/12/09 03:32:27;;;;;;;15.37;9.20;;;0.80;99.90;;;;;;5034112;28;20420;-83
2022/12/09 03:35:00;;;;;;;20.80;8.87;;;0.70;99.90;;;;;;5029694;28;20441;-84
2022/12/09 03:37:26;;;;;;;17.30;9.50;;;0.90;99.90;;;;;;5033492;28;20440;-84
2022/12/09 03:39:54;;;;;;;20.40;10.53;;;0.80;99.90;;;;;;5029803;28;20433;-83
2022/12/09 03:42:29;;;;;;;25.40;12.07;;;0.70;99.90;;;;;;5033865;28;20414;-83
2022/12/09 03:45:02;;;;;;;19.20;10.30;;;0.60;99.90;;;;;;5030206;28;20532;-82
2022/12/09 03:47:28;;;;;;;20.80;11.07;;;0.60;99.90;;;;;;5033834;28;20912;-82
2022/12/09 03:49:54;;;;;;;25.30;11.53;;;0.50;99.90;;;;;;5033508;28;20425;-82
2022/12/09 03:52:24;;;;;;;23.20;10.60;;;0.50;99.90;;;;;;5033845;28;20422;-83
2022/12/09 03:54:55;;;;;;;22.80;10.10;;;0.50;99.90;;;;;;5033673;28;20205;-83
2022/12/09 03:57:22;;;;;;;15.17;9.87;;;0.60;99.90;;;;;;5033739;28;20409;-83
2022/12/09 03:59:56;;;;;;;17.67;9.67;;;0.50;99.90;;;;;;5033682;28;20546;-83
2022/12/09 04:02:22;;;;;;;18.63;9.87;;;0.50;99.90;;;;;;5033775;28;20926;-82
2022/12/09 04:04:47;;;;;;;14.77;8.47;;;0.40;99.90;;;;;;5028560;28;20413;-83
2022/12/09 04:07:14;;;;;;;17.90;11.87;;;0.40;99.90;;;;;;5033474;28;20174;-82
2022/12/09 04:09:40;;;;;;;20.90;10.00;;;0.30;99.90;;;;;;5027692;28;20183;-82
2022/12/09 04:12:05;;;;;;;17.43;9.60;;;0.20;99.90;;;;;;5033277;28;20425;-82
2022/12/09 04:14:32;;;;;;;20.27;11.03;;;0.20;99.90;;;;;;5033227;28;20221;-82
2022/12/09 04:16:58;;;;;;;18.07;10.67;;;0.20;99.90;;;;;;5033338;28;20420;-82
2022/12/09 04:19:23;;;;;;;24.27;12.70;;;0.20;99.90;;;;;;5032771;28;20183;-82
2022/12/09 04:21:49;;;;;;;23.83;10.63;;;0.20;99.90;;;;;;5033270;28;20273;-82
2022/12/09 04:24:14;;;;;;;21.00;12.27;;;0.30;99.90;;;;;;5033537;28;20606;-82
2022/12/09 04:26:40;;;;;;;31.23;12.97;;;0.30;99.90;;;;;;5053378;28;20515;-83
2022/12/09 04:29:05;;;;;;;22.10;9.90;;;0.40;99.90;;;;;;5053500;28;20213;-82
2022/12/09 04:31:31;;;;;;;25.97;12.30;;;0.40;99.90;;;;;;5053406;28;20200;-82
2022/12/09 04:33:57;;;;;;;19.97;9.60;;;0.40;99.90;;;;;;5053089;28;20211;-81
2022/12/09 04:36:22;;;;;;;22.90;13.60;;;0.40;99.90;;;;;;5045209;28;20416;-82
2022/12/09 04:38:48;;;;;;;24.10;10.97;;;0.40;99.90;;;;;;5053146;28;20645;-82
2022/12/09 04:41:14;;;;;;;19.37;12.47;;;0.40;99.90;;;;;;5053229;28;20174;-82
2022/12/09 04:43:40;;;;;;;23.33;14.80;;;0.50;99.90;;;;;;5053191;28;20172;-83
2022/12/09 04:46:11;;;;;;;22.57;12.60;;;0.40;99.90;;;;;;5053105;28;20422;-83
2022/12/09 04:48:36;;;;;;;26.00;13.90;;;0.40;99.90;;;;;;5052014;28;20427;-83
2022/12/09 04:51:02;;;;;;;21.80;13.17;;;0.30;99.90;;;;;;5053047;28;20408;-82
2022/12/09 04:53:28;;;;;;;26.57;12.93;;;0.20;99.90;;;;;;5053030;28;20241;-82
2022/12/09 04:56:09;;;;;;;29.10;14.73;;;0.10;99.90;;;;;;5052825;28;20427;-82
2022/12/09 04:58:35;;;;;;;23.80;11.50;;;0.00;99.90;;;;;;5052736;28;20218;-83
2022/12/09 05:01:08;;;;;;;25.87;12.20;;;-0.10;99.90;;;;;;5049964;28;20445;-83
2022/12/09 05:03:34;;;;;;;26.30;12.63;;;-0.30;99.90;;;;;;5052479;28;20180;-83
2022/12/09 05:06:05;;;;;;;22.20;10.77;;;-0.40;99.90;;;;;;5052850;28;20425;-83
2022/12/09 05:08:31;;;;;;;22.50;11.27;;;-0.40;99.90;;;;;;5052775;28;20408;-83
2022/12/09 05:10:56;;;;;;;27.40;13.67;;;-0.40;99.90;;;;;;5053105;28;20478;-83
2022/12/09 05:13:22;;;;;;;24.43;11.30;;;-0.50;99.90;;;;;;5052915;28;20209;-83
2022/12/09 05:15:47;;;;;;;21.73;11.50;;;-0.60;99.90;;;;;;5066886;28;20177;-83
2022/12/09 05:18:13;;;;;;;21.17;11.73;;;-0.60;99.90;;;;;;5058875;28;20714;-83
2022/12/09 05:20:39;;;;;;;20.57;11.73;;;-0.60;99.90;;;;;;5058381;28;20187;-83
2022/12/09 05:23:05;;;;;;;21.87;10.47;;;-0.70;99.90;;;;;;5052659;28;20184;-82
2022/12/09 05:25:31;;;;;;;27.13;11.07;;;-0.70;99.90;;;;;;5052492;28;20935;-82
2022/12/09 05:27:56;;;;;;;19.53;11.40;;;-0.70;99.90;;;;;;5052836;28;20454;-82
2022/12/09 05:30:22;;;;;;;20.00;10.73;;;-0.70;99.90;;;;;;5052737;28;20533;-83
2022/12/09 05:32:47;;;;;;;22.93;13.53;;;-0.80;99.90;;;;;;5052826;28;20175;-82
2022/12/09 05:35:13;;;;;;;22.37;10.10;;;-0.70;99.90;;;;;;5052728;28;20173;-83
2022/12/09 05:37:38;;;;;;;23.57;13.67;;;-0.70;99.90;;;;;;5052773;28;20170;-82
2022/12/09 05:40:05;;;;;;;29.53;12.93;;;-0.60;99.90;;;;;;5052787;28;20169;-82
2022/12/09 05:42:30;;;;;;;21.97;14.63;;;-0.40;99.90;;;;;;5052814;28;20163;-82
2022/12/09 05:44:56;;;;;;;24.27;13.40;;;-0.30;99.90;;;;;;5052885;28;20912;-82
2022/12/09 05:47:21;;;;;;;24.10;13.00;;;-0.30;99.90;;;;;;5052786;28;20303;-83
2022/12/09 05:49:47;;;;;;;22.33;12.80;;;-0.30;99.90;;;;;;5052406;28;20173;-83
2022/12/09 05:52:13;;;;;;;21.67;10.93;;;-0.30;99.90;;;;;;5052729;28;20761;-83
2022/12/09 05:54:39;;;;;;;32.10;13.90;;;-0.30;99.90;;;;;;5052864;28;20207;-82
2022/12/09 05:57:05;;;;;;;27.57;13.43;;;-0.10;99.90;;;;;;5052756;28;20415;-82
2022/12/09 05:59:30;;;;;;;26.87;13.50;;;0.00;99.90;;;;;;5053528;28;20456;-82
2022/12/09 06:01:56;;;;;;;20.80;11.20;;;0.00;99.90;;;;;;5056204;28;20405;-83
2022/12/09 06:04:21;;;;;;;27.40;13.10;;;0.00;99.90;;;;;;5055697;28;20189;-82
2022/12/09 06:06:47;;;;;;;32.07;15.20;;;0.00;99.90;;;;;;5056044;28;20714;-82
2022/12/09 06:09:13;;;;;;;27.57;12.67;;;0.00;99.90;;;;;;5056080;28;20180;-82
2022/12/09 06:11:39;;;;;;;24.70;13.03;;;0.00;99.90;;;;;;5049937;28;20536;-83
2022/12/09 06:14:09;;;;;;;33.90;12.50;;;0.00;99.90;;;;;;5055722;28;20223;-83
2022/12/09 06:16:35;;;;;;;27.77;12.37;;;0.00;99.90;;;;;;5055498;28;20471;-84
2022/12/09 06:19:01;;;;;;;25.83;12.40;;;0.00;99.90;;;;;;5055290;28;20420;-82
2022/12/09 06:21:26;;;;;;;25.47;10.97;;;0.00;99.90;;;;;;5055297;28;20175;-82
2022/12/09 06:23:52;;;;;;;32.37;14.20;;;0.00;99.90;;;;;;5055313;28;20166;-83
2022/12/09 06:26:24;;;;;;;33.47;13.00;;;0.00;99.90;;;;;;5055290;28;20165;-82
2022/12/09 06:28:50;;;;;;;19.63;12.90;;;0.00;99.90;;;;;;5055249;28;20522;-84
2022/12/09 06:31:16;;;;;;;32.10;14.63;;;0.00;99.90;;;;;;5046248;28;20424;-83
2022/12/09 06:33:42;;;;;;;34.73;13.47;;;0.00;99.90;;;;;;5054808;28;20582;-83
2022/12/09 06:36:08;;;;;;;26.27;12.47;;;0.00;99.90;;;;;;5053371;28;20980;-83
2022/12/09 06:38:34;;;;;;;23.80;10.87;;;0.00;99.90;;;;;;5055116;28;20404;-83
2022/12/09 06:41:03;;;;;;;33.10;12.90;;;0.00;99.90;;;;;;5054987;28;20424;-83
2022/12/09 06:43:29;;;;;;;28.80;12.20;;;0.00;99.90;;;;;;5054983;28;20770;-83
2022/12/09 06:45:54;;;;;;;28.37;14.40;;;0.00;99.90;;;;;;5054918;28;20424;-84
2022/12/09 06:48:20;;;;;;;34.00;13.93;;;0.10;99.90;;;;;;5054552;28;20178;-83
2022/12/09 06:50:45;;;;;;;33.33;14.37;;;0.10;99.90;;;;;;5054854;28;20696;-83
2022/12/09 06:53:11;;;;;;;29.23;14.90;;;0.10;99.90;;;;;;5054820;28;20260;-83
2022/12/09 06:55:36;;;;;;;25.30;10.83;;;0.10;99.90;;;;;;5054806;28;20234;-83
2022/12/09 06:58:02;;;;;;;25.70;12.43;;;0.10;99.90;;;;;;5052142;28;20179;-83
2022/12/09 07:00:27;;;;;;;22.83;12.70;;;0.10;99.90;;;;;;5054578;28;20318;-81
2022/12/09 07:02:53;;;;;;;31.87;15.97;;;0.10;99.90;;;;;;5048388;28;20609;-83
2022/12/09 07:05:19;;;;;;;23.67;11.47;;;0.10;99.90;;;;;;5034468;28;20168;-83
2022/12/09 07:07:50;;;;;;;25.90;14.30;;;0.10;99.90;;;;;;5034593;28;20539;-82
2022/12/09 07:10:16;;;;;;;25.13;12.00;;;0.20;99.90;;;;;;5034305;28;20176;-82
2022/12/09 07:12:42;;;;;;;20.50;10.70;;;0.20;99.90;;;;;;5033722;28;20968;-83
2022/12/09 07:15:08;;;;;;;28.10;14.80;;;0.10;99.90;;;;;;5016611;28;20467;-82
2022/12/09 07:17:42;;;;;;;24.53;11.50;;;0.10;99.90;;;;;;5034388;28;20623;-83
2022/12/09 07:20:08;;;;;;;21.60;11.60;;;0.10;99.90;;;;;;5034055;28;20423;-83
2022/12/09 07:22:34;;;;;;;20.50;11.77;;;0.00;99.90;;;;;;5034313;28;20748;-82
2022/12/09 07:24:59;;;;;;;16.03;11.30;;;0.00;99.90;;;;;;5016444;28;20432;-83
2022/12/09 07:27:25;;;;;;;23.40;10.63;;;0.00;99.90;;;;;;5034194;28;20182;-82
2022/12/09 07:29:50;;;;;;;18.40;9.07;;;0.00;99.90;;;;;;5034141;28;20174;-82
2022/12/09 07:32:16;;;;;;;25.33;13.27;;;0.00;99.90;;;;;;5034158;28;20628;-83
2022/12/09 07:34:41;;;;;;;20.07;10.70;;;0.10;99.90;;;;;;5033702;28;20206;-83
2022/12/09 07:37:07;;;;;;;18.60;10.13;;;0.00;99.90;;;;;;5034011;28;20178;-83
2022/12/09 07:39:32;;;;;;;19.57;9.97;;;0.00;99.90;;;;;;5033956;28;20205;-82
2022/12/09 07:41:58;;;;;;;22.40;10.93;;;0.10;99.90;;;;;;5033898;28;20171;-82
2022/12/09 07:44:27;;;;;;;21.73;11.87;;;0.10;99.90;;;;;;5051930;28;20177;-83
2022/12/09 07:46:54;;;;;;;17.30;8.80;;;0.10;99.90;;;;;;5053628;28;20205;-83
2022/12/09 07:49:20;;;;;;;18.77;10.00;;;0.00;99.90;;;;;;5053333;28;20445;-83
2022/12/09 07:51:45;;;;;;;19.77;10.40;;;0.10;99.90;;;;;;5053531;28;20499;-82
2022/12/09 07:54:12;;;;;;;21.00;12.27;;;0.20;99.90;;;;;;5053559;28;20216;-83
2022/12/09 07:56:38;;;;;;;22.03;11.20;;;0.10;99.90;;;;;;5053608;28;20180;-83
2022/12/09 07:59:09;;;;;;;19.80;11.30;;;0.20;99.90;;;;;;5053282;28;20501;-83
2022/12/09 08:01:35;;;;;;;19.13;9.77;;;0.20;99.90;;;;;;5053607;28;20411;-83
2022/12/09 08:04:03;;;;;;;21.63;12.00;;;0.20;99.90;;;;;;5053096;28;20416;-83
2022/12/09 08:06:29;;;;;;;23.37;11.67;;;0.20;99.90;;;;;;5053445;28;20785;-83
2022/12/09 08:08:59;;;;;;;24.43;10.90;;;0.20;99.90;;;;;;5053281;28;20412;-83
2022/12/09 08:11:27;;;;;;;23.00;11.70;;;0.20;99.90;;;;;;5053184;28;20419;-82
2022/12/09 08:13:55;;;;;;;21.40;9.80;;;0.20;99.90;;;;;;5053095;28;20467;-82
2022/12/09 08:16:21;;;;;;;18.53;11.30;;;0.30;99.90;;;;;;5053197;28;20504;-82
2022/12/09 08:18:48;;;;;;;25.13;11.20;;;0.20;99.90;;;;;;5052840;28;20886;-82
2022/12/09 08:21:25;;;;;;;19.23;11.40;;;0.30;99.90;;;;;;5047813;28;20446;-82
2022/12/09 08:23:51;;;;;;;21.77;10.87;;;0.30;99.90;;;;;;5054027;28;20424;-82
2022/12/09 08:26:20;;;;;;;20.57;11.07;;;0.30;99.90;;;;;;5052923;28;20417;-82
2022/12/09 08:28:46;;;;;;;25.33;12.43;;;0.30;99.90;;;;;;5052883;28;20406;-82
2022/12/09 08:31:18;;;;;;;13.40;8.33;;;0.40;99.90;;;;;;5052814;28;20507;-81
2022/12/09 08:33:43;;;;;;;17.70;8.50;;;0.30;99.90;;;;;;5052465;28;20551;-82
2022/12/09 08:36:26;;;;;;;19.33;9.53;;;0.30;99.90;;;;;;5052918;28;20847;-82
2022/12/09 08:38:52;;;;;;;19.77;10.00;;;0.40;99.90;;;;;;5052869;28;20210;-82
2022/12/09 08:41:33;;;;;;;16.83;7.90;;;0.40;99.90;;;;;;5052811;28;20423;-82
2022/12/09 08:44:16;;;;;;;17.17;10.27;;;0.40;99.90;;;;;;5052840;28;20162;-83
2022/12/09 08:46:45;;;;;;;16.27;9.40;;;0.50;99.90;;;;;;5052910;28;20503;-82
2022/12/09 08:49:11;;;;;;;18.07;10.50;;;0.50;99.90;;;;;;5052369;28;20837;-83
2022/12/09 08:51:38;;;;;;;16.03;10.40;;;0.50;99.90;;;;;;5052710;28;20432;-82
2022/12/09 08:54:04;;;;;;;17.80;9.20;;;0.50;99.90;;;;;;5052703;28;20473;-82
2022/12/09 08:56:30;;;;;;;22.57;13.10;;;0.50;99.90;;;;;;5052666;28;20419;-83
2022/12/09 08:58:56;;;;;;;20.40;12.47;;;0.50;99.90;;;;;;5052468;28;20487;-82
2022/12/09 09:01:33;;;;;;;20.40;9.60;;;0.60;99.90;;;;;;5044626;28;20177;-82
2022/12/09 09:04:19;;;;;;;23.80;10.83;;;0.60;99.90;;;;;;5052307;28;20498;-82
2022/12/09 09:06:48;;;;;;;16.10;9.13;;;0.60;99.90;;;;;;5052591;28;20408;-81
2022/12/09 09:09:14;;;;;;;15.90;8.20;;;0.70;99.90;;;;;;5052630;28;20420;-82
2022/12/09 09:11:40;;;;;;;14.03;9.50;;;0.70;99.90;;;;;;5052572;28;20897;-81
2022/12/09 09:14:07;;;;;;;24.37;11.00;;;0.70;99.90;;;;;;5052513;28;20471;-81
2022/12/09 09:16:34;;;;;;;16.70;8.90;;;0.70;99.90;;;;;;5052610;28;20760;-82
2022/12/09 09:19:02;;;;;;;14.23;9.17;;;0.70;99.90;;;;;;5052357;28;20428;-82
2022/12/09 09:21:27;;;;;;;19.03;10.70;;;0.90;99.90;;;;;;5052763;28;20431;-83
2022/12/09 09:23:53;;;;;;;22.93;9.80;;;0.90;99.90;;;;;;5052597;28;20414;-82
2022/12/09 09:26:21;;;;;;;19.43;10.07;;;1.10;99.90;;;;;;5052608;28;20179;-84
2022/12/09 09:28:48;;;;;;;15.40;10.00;;;1.10;99.90;;;;;;5052578;28;20253;-83
2022/12/09 09:31:20;;;;;;;23.27;9.40;;;1.20;99.90;;;;;;5052499;28;20541;-81
2022/12/09 09:33:46;;;;;;;18.10;10.47;;;1.30;99.90;;;;;;5052065;28;20466;-80
2022/12/09 09:36:19;;;;;;;14.13;9.40;;;1.30;99.90;;;;;;5056253;28;20927;-81
2022/12/09 09:38:45;;;;;;;15.13;9.13;;;1.40;99.90;;;;;;5056237;28;20862;-80
2022/12/09 09:41:29;;;;;;;17.70;9.20;;;1.40;99.90;;;;;;5055947;28;20420;-80
2022/12/09 09:43:55;;;;;;;20.27;9.67;;;1.30;99.90;;;;;;5054683;28;21007;-80
2022/12/09 09:46:47;;;;;;;18.23;9.67;;;1.30;99.90;;;;;;5055910;28;20921;-80
2022/12/09 09:49:17;;;;;;;22.43;10.90;;;1.30;99.90;;;;;;5052825;28;20833;-80
2022/12/09 09:51:43;;;;;;;22.00;14.60;;;1.40;99.90;;;;;;5056032;28;20408;-80
2022/12/09 09:54:11;;;;;;;16.57;11.17;;;1.30;99.90;;;;;;5055764;28;20474;-80
2022/12/09 09:56:45;;;;;;;16.90;10.77;;;1.30;99.90;;;;;;5055955;28;20178;-81
2022/12/09 09:59:43;;;;;;;18.83;9.50;;;1.30;99.90;;;;;;5055654;28;20463;-81
2022/12/09 10:02:11;;;;;;;14.83;9.20;;;1.30;99.90;;;;;;5055863;28;20408;-81
2022/12/09 10:04:52;;;;;;;27.63;11.07;;;1.30;99.90;;;;;;5055360;28;20415;-81
2022/12/09 10:07:39;;;;;;;15.00;8.83;;;1.30;99.90;;;;;;5055590;28;20768;-80
2022/12/09 10:10:23;;;;;;;17.23;10.67;;;1.40;99.90;;;;;;5055652;28;20408;-80
2022/12/09 10:12:57;;;;;;;19.43;10.23;;;1.30;99.90;;;;;;5055468;28;20431;-81
2022/12/09 10:15:29;;;;;;;22.10;11.30;;;1.40;99.90;;;;;;5055544;28;20784;-80
2022/12/09 10:18:27;;;;;;;22.30;10.80;;;1.40;99.90;;;;;;5055223;28;20407;-81
2022/12/09 10:20:53;;;;;;;17.07;8.97;;;1.40;99.90;;;;;;5055434;28;20408;-81
2022/12/09 10:23:21;;;;;;;16.57;8.30;;;1.40;99.90;;;;;;5055344;28;21105;-80
2022/12/09 10:25:51;;;;;;;14.70;9.20;;;1.40;99.90;;;;;;5054903;28;20404;-81
2022/12/09 10:28:28;;;;;;;18.80;11.03;;;1.50;99.90;;;;;;5038942;28;20471;-80
2022/12/09 10:30:54;;;;;;;18.20;9.90;;;1.60;99.90;;;;;;5045730;28;20479;-87
2022/12/09 10:33:33;;;;;;;18.37;9.87;;;1.50;99.90;;;;;;5034723;28;20452;-90
2022/12/09 10:35:59;;;;;;;14.20;9.60;;;1.50;99.90;;;;;;5032884;28;20580;-89
2022/12/09 10:38:28;;;;;;;15.63;9.63;;;1.60;99.90;;;;;;5028419;28;20418;-91
2022/12/09 10:40:53;;;;;;;18.23;8.27;;;1.50;99.90;;;;;;5036785;28;20847;-92
2022/12/09 10:43:33;;;;;;;17.50;10.97;;;1.60;99.90;;;;;;5028859;28;20418;-92
2022/12/09 10:46:08;;;;;;;19.53;10.33;;;1.60;99.90;;;;;;5034960;28;20700;-94
2022/12/09 10:48:42;;;;;;;17.30;11.07;;;1.60;99.90;;;;;;5029944;28;20508;-90
2022/12/09 10:51:27;;;;;;;17.77;11.27;;;1.80;99.90;;;;;;5034335;28;20428;-94
2022/12/09 10:53:54;;;;;;;21.63;9.73;;;1.70;99.90;;;;;;5032452;28;20501;-92
2022/12/09 10:56:31;;;;;;;17.67;9.17;;;1.70;99.90;;;;;;5027685;28;20413;-91
2022/12/09 10:59:22;;;;;;;15.80;8.80;;;1.80;99.90;;;;;;5029354;28;20500;-91
2022/12/09 11:01:56;;;;;;;16.80;10.60;;;1.80;99.90;;;;;;5051234;28;20478;-90
2022/12/09 11:04:30;;;;;;;17.67;8.93;;;1.80;99.90;;;;;;5058273;28;20433;-91
2022/12/09 11:07:01;;;;;;;15.70;8.57;;;1.80;99.90;;;;;;5058610;28;20415;-89
2022/12/09 11:09:32;;;;;;;17.90;9.53;;;1.90;99.90;;;;;;5061623;28;20413;-90
2022/12/09 11:11:59;;;;;;;15.07;8.57;;;2.00;99.90;;;;;;5060183;28;20409;-85
2022/12/09 11:14:59;;;;;;;18.37;9.17;;;1.90;99.90;;;;;;5058952;28;20460;-91
2022/12/09 11:17:38;;;;;;;11.70;7.70;;;1.90;99.90;;;;;;5034873;28;20424;-88
2022/12/09 11:20:03;;;;;;;10.67;6.70;;;1.80;99.90;;;;;;5058187;28;20431;-85
2022/12/09 11:22:40;;;;;;;28.17;9.40;;;1.90;99.90;;;;;;5059042;28;20515;-87
2022/12/09 11:25:19;;;;;;;18.67;10.70;;;2.00;99.90;;;;;;5057319;28;20215;-87
2022/12/09 11:27:58;;;;;;;18.03;8.33;;;2.00;99.90;;;;;;5055127;28;20802;-95
2022/12/09 11:30:55;;;;;;;15.80;8.93;;;1.90;99.90;;;;;;5061645;28;20936;-92
2022/12/09 11:33:28;;;;;;;15.00;8.00;;;2.00;99.90;;;;;;5022503;28;20456;-90
2022/12/09 11:36:03;;;;;;;15.50;8.70;;;1.90;99.90;;;;;;5053537;28;20516;-92
2022/12/09 11:38:49;;;;;;;14.10;8.20;;;1.80;99.90;;;;;;5047008;28;20420;-89
2022/12/09 11:44:23;;;;;;;16.23;9.77;;;2.00;99.90;;;;;;5054724;28;20392;-91
2022/12/09 11:47:10;;;;;;;15.60;10.53;;;2.10;99.90;;;;;;5049940;28;20962;-89
2022/12/09 11:50:04;;;;;;;16.57;9.03;;;2.10;99.90;;;;;;5048137;28;20424;-91
2022/12/09 11:52:30;;;;;;;16.40;9.93;;;2.10;99.90;;;;;;5052574;28;21003;-89
2022/12/09 11:55:10;;;;;;;14.50;9.37;;;2.20;99.90;;;;;;5052797;28;20561;-90
2022/12/09 11:57:46;;;;;;;20.97;11.20;;;2.30;99.90;;;;;;5047514;28;20173;-89
2022/12/09 12:00:16;;;;;;;16.50;9.23;;;2.30;99.90;;;;;;5052492;28;20468;-87
2022/12/09 12:02:45;;;;;;;14.27;10.10;;;2.50;99.90;;;;;;5052093;28;20497;-91
2022/12/09 12:05:28;;;;;;;19.97;11.50;;;2.60;99.90;;;;;;5052886;28;20445;-91
2022/12/09 12:08:06;;;;;;;17.83;11.17;;;2.70;99.90;;;;;;5051672;28;20436;-90
2022/12/09 12:10:51;;;;;;;15.40;10.27;;;2.70;99.90;;;;;;5047264;28;20419;-91
2022/12/09 12:13:41;;;;;;;15.40;10.20;;;2.60;99.90;;;;;;5044398;28;20547;-87
2022/12/09 12:16:24;;;;;;;17.77;10.50;;;2.60;99.90;;;;;;5053293;28;20504;-89
2022/12/09 12:19:00;;;;;;;14.93;8.20;;;2.60;99.90;;;;;;5048931;28;20495;-90
2022/12/09 12:21:36;;;;;;;17.80;10.00;;;2.60;99.90;;;;;;5046096;28;20424;-90
2022/12/09 12:24:28;;;;;;;14.63;7.83;;;2.60;99.90;;;;;;5052305;28;20403;-89
2022/12/09 12:27:26;;;;;;;15.07;9.90;;;2.50;99.90;;;;;;5050328;28;20424;-90
2022/12/09 12:29:54;;;;;;;15.97;10.10;;;2.60;99.90;;;;;;5016722;28;20419;-90
2022/12/09 12:32:39;;;;;;;15.40;9.37;;;2.70;99.90;;;;;;5045288;28;20408;-91
2022/12/09 12:35:54;;;;;;;18.50;10.30;;;2.90;99.90;;;;;;5052984;28;20472;-91
2022/12/09 12:38:40;;;;;;;16.77;10.90;;;3.20;99.90;;;;;;5036530;28;20431;-89
2022/12/09 12:41:30;;;;;;;16.47;8.90;;;3.30;99.90;;;;;;5052607;28;21043;-91
2022/12/09 12:47:08;;;;;;;14.03;8.27;;;3.20;99.90;;;;;;5053858;28;20404;-85
2022/12/09 12:49:59;;;;;;;15.43;6.70;;;3.10;99.90;;;;;;5047176;28;20417;-90
2022/12/09 12:52:42;;;;;;;18.63;10.20;;;2.90;99.90;;;;;;5052895;28;20428;-94
2022/12/09 12:55:39;;;;;;;14.07;10.03;;;2.70;99.90;;;;;;5054519;28;20582;-94
2022/12/09 12:58:11;;;;;;;17.83;10.17;;;2.70;99.90;;;;;;5056377;28;20425;-94
2022/12/09 13:00:59;;;;;;;14.27;7.93;;;2.70;99.90;;;;;;5048980;28;20544;-92
2022/12/09 13:03:58;;;;;;;15.33;8.97;;;2.60;99.90;;;;;;5053891;28;20411;-94